Time;durP1;ratioP1;P1;durP2;ratioP2;P2;SDS_P1;SDS_P2;PMS_P1;PMS_P2;Temp;Humidity;BMP_temperature;BMP_pressure;BME280_temperature;BME280_humidity;BME280_pressure;Samples;Min_cycle;Max_cycle;Signal;HPM_P1;HPM_P2
2023/03/27 00:00:19;;;;;;;43.70;41.20;;;;;;;4.51;100.00;100198.25;5029861;28;20084;-81
2023/03/27 00:02:48;;;;;;;38.22;35.95;;;;;;;4.39;100.00;100202.28;5032518;28;20527;-81
2023/03/27 00:05:19;;;;;;;36.47;34.47;;;;;;;4.46;100.00;100201.41;5031259;28;20132;-81
2023/03/27 00:07:47;;;;;;;35.97;33.78;;;;;;;4.31;100.00;100196.13;5027758;28;20081;-81
2023/03/27 00:10:17;;;;;;;35.05;32.75;;;;;;;4.63;100.00;100186.31;5031980;28;20049;-80
2023/03/27 00:12:45;;;;;;;35.40;33.28;;;;;;;4.91;100.00;100185.69;5021321;28;20046;-81
2023/03/27 00:15:16;;;;;;;38.83;36.15;;;;;;;4.96;100.00;100175.41;5022534;28;20056;-81
2023/03/27 00:17:49;;;;;;;32.55;30.55;;;;;;;4.99;100.00;100188.19;5023416;28;20605;-81
2023/03/27 00:20:20;;;;;;;;;;;;;;;5.04;100.00;100168.22;5030947;28;20049;-81
2023/03/27 00:22:54;;;;;;;38.90;31.90;;;;;;;5.42;100.00;100175.19;5027368;28;19921;-81
2023/03/27 00:25:26;;;;;;;151.43;72.57;;;;;;;5.47;100.00;100176.25;5032664;28;20045;-81
2023/03/27 00:27:55;;;;;;;92.22;53.10;;;;;;;5.67;100.00;100173.84;5024962;28;20049;-81
2023/03/27 00:30:23;;;;;;;273.30;132.48;;;;;;;5.77;100.00;100164.81;5030081;28;20270;-81
2023/03/27 00:32:50;;;;;;;110.88;65.43;;;;;;;5.59;100.00;100163.41;5030610;28;20576;-81
2023/03/27 00:35:17;;;;;;;86.55;58.40;;;;;;;5.78;100.00;100154.09;5028213;28;20057;-81
2023/03/27 00:37:50;;;;;;;46.08;41.70;;;;;;;5.28;100.00;100153.13;5023102;28;20112;-81
2023/03/27 00:40:18;;;;;;;37.55;33.92;;;;;;;5.39;100.00;100147.41;5025032;28;20108;-81
2023/03/27 00:42:57;;;;;;;33.13;30.52;;;;;;;5.15;100.00;100158.25;5027296;28;20111;-81
2023/03/27 00:45:27;;;;;;;31.67;29.15;;;;;;;5.51;100.00;100148.53;5019852;28;20069;-81
2023/03/27 00:47:58;;;;;;;31.38;29.38;;;;;;;5.15;100.00;100139.81;5026830;28;20056;-81
2023/03/27 00:50:28;;;;;;;30.67;28.60;;;;;;;5.13;100.00;100153.16;5030940;28;20399;-81
2023/03/27 00:52:59;;;;;;;26.10;24.60;;;;;;;5.28;100.00;100148.69;5026916;28;20041;-81
2023/03/27 00:55:30;;;;;;;33.05;31.15;;;;;;;4.68;100.00;100148.94;5023282;28;20140;-81
2023/03/27 00:58:03;;;;;;;47.65;43.03;;;;;;;4.71;100.00;100153.81;5025429;28;20053;-80
2023/03/27 01:00:32;;;;;;;37.88;34.92;;;;;;;4.74;100.00;100143.75;5033254;28;20046;-81
2023/03/27 01:03:00;;;;;;;40.40;37.58;;;;;;;5.06;100.00;100136.47;5021603;28;20041;-81
2023/03/27 01:05:27;;;;;;;38.97;36.47;;;;;;;5.08;100.00;100131.81;5030718;28;20115;-81
2023/03/27 01:07:55;;;;;;;35.53;33.30;;;;;;;4.97;100.00;100129.69;5025063;28;20049;-80
2023/03/27 01:10:27;;;;;;;45.30;42.60;;;;;;;4.79;100.00;100119.53;5023278;28;20050;-81
2023/03/27 01:13:07;;;;;;;38.97;36.53;;;;;;;4.71;100.00;100114.34;5024428;28;20042;-81
2023/03/27 01:15:39;;;;;;;37.25;34.95;;;;;;;4.42;100.00;100110.75;5029918;28;20495;-81
2023/03/27 01:18:19;;;;;;;41.10;38.28;;;;;;;4.40;100.00;100110.09;5031979;28;20458;-81
2023/03/27 01:21:25;;;;;;;45.70;43.03;;;;;;;4.23;100.00;100092.84;5031996;28;20038;-81
2023/03/27 01:24:25;;;;;;;44.08;41.47;;;;;;;4.10;100.00;100086.41;5021383;28;20090;-81
2023/03/27 01:27:01;;;;;;;46.20;43.47;;;;;;;4.27;100.00;100088.88;5019748;28;20060;-81
2023/03/27 01:29:38;;;;;;;49.67;46.65;;;;;;;4.19;100.00;100084.50;5028796;28;20045;-81
2023/03/27 01:32:33;;;;;;;49.72;46.50;;;;;;;4.10;100.00;100077.69;5025433;28;20080;-81
2023/03/27 01:35:31;;;;;;;59.20;55.38;;;;;;;3.65;100.00;100079.41;5015610;28;20474;-81
2023/03/27 01:38:29;;;;;;;51.20;47.90;;;;;;;3.91;100.00;100079.03;5028926;28;20103;-81
2023/03/27 01:41:01;;;;;;;48.25;44.95;;;;;;;4.17;100.00;100067.28;4990160;28;20495;-81
2023/03/27 01:43:35;;;;;;;44.38;41.38;;;;;;;4.24;100.00;100063.75;5028540;28;20049;-81
2023/03/27 01:46:07;;;;;;;43.60;41.10;;;;;;;4.55;100.00;100068.03;5024406;28;20049;-81
2023/03/27 01:48:36;;;;;;;;;;;;;;;4.82;100.00;100061.28;5032832;28;20049;-81
2023/03/27 01:51:09;;;;;;;27.42;25.83;;;;;;;4.91;100.00;100054.09;5024903;28;19926;-81
2023/03/27 01:53:41;;;;;;;40.15;38.05;;;;;;;4.74;100.00;100056.94;5031023;28;20057;-81
2023/03/27 01:56:16;;;;;;;36.40;34.50;;;;;;;4.80;100.00;100042.22;5028114;28;20055;-81
2023/03/27 01:58:48;;;;;;;28.88;27.33;;;;;;;5.16;100.00;100042.22;5031741;28;20541;-81
2023/03/27 02:01:19;;;;;;;31.73;30.13;;;;;;;5.20;100.00;100018.97;5183970;22;20114;-80
2023/03/27 02:03:51;;;;;;;31.15;29.65;;;;;;;5.18;100.00;100008.63;5034359;28;20477;-81
2023/03/27 02:06:23;;;;;;;40.95;37.25;;;;;;;5.18;100.00;100021.78;5029477;28;20045;-81
2023/03/27 02:08:57;;;;;;;39.83;37.30;;;;;;;5.21;100.00;100031.94;5033824;28;20052;-81
2023/03/27 02:11:30;;;;;;;30.08;28.30;;;;;;;5.11;100.00;100027.97;5028683;28;20080;-81
2023/03/27 02:14:00;;;;;;;40.17;37.60;;;;;;;4.36;100.00;100016.81;5033673;28;20054;-81
2023/03/27 02:16:32;;;;;;;46.28;43.38;;;;;;;4.05;100.00;100016.97;5034092;28;20130;-81
2023/03/27 02:19:03;;;;;;;59.25;53.83;;;;;;;3.94;100.00;100007.72;5031661;28;20062;-81
2023/03/27 02:21:30;;;;;;;53.63;49.17;;;;;;;4.15;100.00;100017.53;5032460;28;20073;-80
2023/03/27 02:24:00;;;;;;;44.25;40.95;;;;;;;4.34;100.00;100000.38;5033514;28;20052;-81
2023/03/27 02:26:29;;;;;;;33.85;31.95;;;;;;;4.58;100.00;100012.44;5031966;28;20061;-81
2023/03/27 02:29:07;;;;;;;34.03;32.03;;;;;;;4.56;100.00;100019.66;5033554;28;20076;-81
2023/03/27 02:31:49;;;;;;;33.75;31.77;;;;;;;4.83;100.00;100005.81;5033795;28;20053;-81
2023/03/27 02:34:42;;;;;;;35.13;33.10;;;;;;;4.11;100.00;100003.94;5031359;28;20061;-81
2023/03/27 02:37:18;;;;;;;;;;;;;;;4.90;100.00;99998.03;5029419;28;20103;-81
2023/03/27 02:39:54;;;;;;;34.72;32.88;;;;;;;5.05;100.00;99992.69;5033241;28;19925;-81
2023/03/27 02:42:29;;;;;;;29.50;27.90;;;;;;;5.02;100.00;99998.31;5030371;28;20072;-81
2023/03/27 02:45:02;;;;;;;38.25;35.63;;;;;;;4.33;100.00;100001.41;5033003;28;20435;-81
2023/03/27 02:47:36;;;;;;;42.70;39.67;;;;;;;3.76;100.00;99991.50;5032337;28;20042;-81
2023/03/27 02:50:08;;;;;;;41.72;38.83;;;;;;;3.33;100.00;99988.56;5030864;28;20108;-80
2023/03/27 02:52:39;;;;;;;41.58;38.58;;;;;;;3.60;100.00;99974.06;5029361;28;20065;-81
2023/03/27 02:55:11;;;;;;;46.33;43.03;;;;;;;3.74;100.00;99981.16;5031799;28;20093;-81
2023/03/27 02:57:39;;;;;;;44.92;42.17;;;;;;;4.20;100.00;99973.09;5030466;28;20050;-81
2023/03/27 03:00:24;;;;;;;32.88;30.88;;;;;;;4.47;100.00;99968.19;5032885;28;20042;-81
2023/03/27 03:02:56;;;;;;;25.40;23.80;;;;;;;4.66;100.00;99964.13;5019517;28;20058;-81
2023/03/27 03:05:23;;;;;;;27.85;26.05;;;;;;;4.74;100.00;99961.41;5015836;28;20121;-81
2023/03/27 03:07:53;;;;;;;31.70;30.00;;;;;;;4.80;100.00;99955.41;5014146;28;20042;-81
2023/03/27 03:10:21;;;;;;;29.65;28.02;;;;;;;4.85;100.00;99952.22;5017827;28;20081;-80
2023/03/27 03:12:49;;;;;;;29.45;27.85;;;;;;;4.93;100.00;99952.91;4662604;28;9999771;-81
2023/03/27 03:15:17;;;;;;;23.42;22.23;;;;;;;4.94;100.00;99951.09;5007610;28;20073;-81
2023/03/27 03:17:44;;;;;;;24.67;23.55;;;;;;;4.97;100.00;99948.09;5008796;28;20038;-81
2023/03/27 03:20:13;;;;;;;22.80;21.55;;;;;;;4.95;100.00;99939.56;5008047;28;20053;-81
2023/03/27 03:22:40;;;;;;;21.58;20.40;;;;;;;5.04;100.00;99935.78;5008451;28;20070;-81
2023/03/27 03:25:09;;;;;;;22.23;20.92;;;;;;;4.99;100.00;99928.47;5008415;28;20074;-81
2023/03/27 03:27:36;;;;;;;25.80;24.50;;;;;;;5.02;100.00;99922.84;5011469;28;20070;-81
2023/03/27 03:30:06;;;;;;;25.15;23.85;;;;;;;4.50;100.00;99918.66;4995005;28;20514;-81
2023/03/27 03:32:34;;;;;;;24.42;23.10;;;;;;;4.79;100.00;99909.06;4994291;28;20052;-81
2023/03/27 03:35:01;;;;;;;26.63;25.00;;;;;;;4.80;100.00;99910.66;4992817;28;20467;-80
2023/03/27 03:37:28;;;;;;;28.33;26.83;;;;;;;4.88;100.00;99899.22;4990539;28;20133;-81
2023/03/27 03:39:55;;;;;;;27.80;26.30;;;;;;;4.93;100.00;99891.56;4992474;28;20046;-81
2023/03/27 03:42:22;;;;;;;27.70;26.35;;;;;;;4.82;100.00;99895.53;4993853;28;20109;-81
2023/03/27 03:44:48;;;;;;;30.58;28.98;;;;;;;4.71;100.00;99886.28;4989884;28;20046;-81
2023/03/27 03:47:17;;;;;;;29.63;27.67;;;;;;;4.87;100.00;99881.78;4993311;28;20042;-81
2023/03/27 03:49:43;;;;;;;52.22;48.05;;;;;;;5.03;100.00;99882.34;4992576;28;20050;-81
2023/03/27 03:52:10;;;;;;;56.35;51.40;;;;;;;5.18;100.00;99874.38;4988048;28;20112;-81
2023/03/27 03:54:39;;;;;;;51.00;46.22;;;;;;;5.27;100.00;99865.31;4987333;28;20124;-81
2023/03/27 03:57:06;;;;;;;51.17;46.97;;;;;;;5.43;100.00;99861.56;4990372;28;20169;-81
2023/03/27 03:59:33;;;;;;;58.03;51.85;;;;;;;5.48;100.00;99864.44;4987973;28;20116;-81
2023/03/27 04:02:00;;;;;;;59.35;53.05;;;;;;;5.48;100.00;99855.72;4990320;28;20523;-81
2023/03/27 04:04:29;;;;;;;55.25;49.78;;;;;;;5.65;100.00;99846.50;4992711;28;20046;-81
2023/03/27 04:06:57;;;;;;;20.85;19.40;;;;;;;5.78;100.00;99847.56;4994180;28;20054;-81
2023/03/27 04:09:24;;;;;;;19.02;17.73;;;;;;;5.75;100.00;99838.25;4991860;28;20050;-81
2023/03/27 04:11:50;;;;;;;18.40;17.23;;;;;;;5.79;100.00;99823.66;4988902;28;20038;-81
2023/03/27 04:14:17;;;;;;;19.05;17.52;;;;;;;5.90;100.00;99828.38;4998722;28;20046;-81
2023/03/27 04:16:44;;;;;;;17.83;16.67;;;;;;;5.91;100.00;99826.56;4994602;28;20046;-81
2023/03/27 04:19:11;;;;;;;17.85;16.75;;;;;;;6.02;100.00;99839.22;4994033;28;20478;-81
2023/03/27 04:21:41;;;;;;;19.92;18.63;;;;;;;6.02;100.00;99828.66;4987551;28;20051;-81
2023/03/27 04:24:07;;;;;;;18.30;17.13;;;;;;;6.09;100.00;99836.59;4989348;28;20057;-81
2023/03/27 04:26:34;;;;;;;19.13;17.73;;;;;;;6.12;100.00;99833.56;4993532;28;20544;-80
2023/03/27 04:29:01;;;;;;;17.77;16.58;;;;;;;6.14;100.00;99819.16;4991448;28;20055;-81
2023/03/27 04:31:29;;;;;;;17.58;16.27;;;;;;;6.06;100.00;99821.16;4986404;28;20112;-81
2023/03/27 04:33:55;;;;;;;18.90;17.17;;;;;;;6.13;100.00;99811.44;4993426;28;20108;-81
2023/03/27 04:36:23;;;;;;;21.33;19.67;;;;;;;6.11;100.00;99813.47;4990418;28;20073;-81
2023/03/27 04:38:52;;;;;;;19.38;17.77;;;;;;;6.08;100.00;99809.41;4993860;28;20050;-81
2023/03/27 04:41:20;;;;;;;18.33;17.02;;;;;;;6.27;100.00;99813.09;4993451;28;20137;-81
2023/03/27 04:43:46;;;;;;;19.70;17.90;;;;;;;6.26;100.00;99802.75;5003385;28;20050;-81
2023/03/27 04:46:13;;;;;;;21.88;19.92;;;;;;;6.39;100.00;99803.59;4992301;28;20050;-81
2023/03/27 04:48:40;;;;;;;21.00;19.20;;;;;;;6.34;100.00;99798.09;4995821;28;20042;-81
2023/03/27 04:51:08;;;;;;;18.10;16.70;;;;;;;6.63;100.00;99789.00;4996549;28;20569;-81
2023/03/27 04:53:36;;;;;;;18.05;16.70;;;;;;;6.92;100.00;99781.69;4995628;28;20081;-81
2023/03/27 04:56:05;;;;;;;19.27;17.58;;;;;;;7.25;100.00;99783.47;4995196;28;20137;-80
2023/03/27 04:58:33;;;;;;;20.35;18.55;;;;;;;7.42;100.00;99776.72;5005072;28;20046;-81
2023/03/27 05:01:01;;;;;;;58.58;47.78;;;;;;;7.76;100.00;99778.22;5004258;28;20165;-81
2023/03/27 05:03:27;;;;;;;26.52;23.88;;;;;;;7.73;100.00;99772.53;4998121;28;20047;-81
2023/03/27 05:05:54;;;;;;;19.80;18.10;;;;;;;7.96;100.00;99766.75;4996402;28;20046;-81
2023/03/27 05:08:21;;;;;;;49.67;37.97;;;;;;;8.15;100.00;99771.09;4993117;28;20050;-81
2023/03/27 05:10:48;;;;;;;23.67;21.63;;;;;;;8.50;100.00;99762.75;4991104;28;20050;-80
2023/03/27 05:13:16;;;;;;;21.65;19.67;;;;;;;8.47;100.00;99747.28;4990549;28;20106;-80
2023/03/27 05:15:43;;;;;;;18.77;17.38;;;;;;;8.81;100.00;99755.78;4998057;28;20064;-81
2023/03/27 05:18:12;;;;;;;19.27;17.92;;;;;;;8.89;100.00;99744.91;5002078;28;20105;-81
2023/03/27 05:20:38;;;;;;;20.10;18.58;;;;;;;9.05;100.00;99748.84;5016926;28;20046;-81
2023/03/27 05:23:05;;;;;;;21.80;19.95;;;;;;;9.30;100.00;99749.59;5002810;28;20484;-81
2023/03/27 05:25:33;;;;;;;21.85;19.85;;;;;;;9.43;100.00;99739.84;5012039;28;20042;-81
2023/03/27 05:28:00;;;;;;;18.25;16.98;;;;;;;9.57;100.00;99741.34;5018011;28;20062;-81
2023/03/27 05:30:29;;;;;;;19.77;18.30;;;;;;;9.71;100.00;99740.09;5010045;28;20058;-81
2023/03/27 05:32:57;;;;;;;20.50;18.85;;;;;;;9.90;100.00;99740.09;5011682;28;20042;-81
2023/03/27 05:35:27;;;;;;;20.05;18.50;;;;;;;10.06;100.00;99728.84;5016793;28;20117;-81
2023/03/27 05:37:54;;;;;;;19.88;18.38;;;;;;;10.26;100.00;99726.75;5006904;28;20102;-81
2023/03/27 05:40:24;;;;;;;18.77;17.38;;;;;;;10.39;100.00;99719.59;4999570;28;20058;-80
2023/03/27 05:42:52;;;;;;;21.52;19.77;;;;;;;10.53;100.00;99699.78;4997638;28;20148;-80
2023/03/27 05:45:19;;;;;;;19.90;18.50;;;;;;;10.62;100.00;99702.88;4995102;28;20080;-81
2023/03/27 05:47:50;;;;;;;22.85;21.10;;;;;;;10.80;100.00;99696.63;4994803;28;20051;-81
2023/03/27 05:50:19;;;;;;;20.30;18.88;;;;;;;10.93;100.00;99699.88;5004613;28;20565;-80
2023/03/27 05:52:47;;;;;;;19.25;18.00;;;;;;;11.13;100.00;99690.69;4993433;28;20042;-81
2023/03/27 05:55:14;;;;;;;20.15;18.70;;;;;;;11.23;100.00;99681.09;4993396;28;20077;-81
2023/03/27 05:57:42;;;;;;;21.52;20.13;;;;;;;11.30;100.00;99683.63;4997283;28;20042;-81
2023/03/27 06:00:13;;;;;;;23.35;21.60;;;;;;;11.47;100.00;99675.72;4996158;28;20051;-81
2023/03/27 06:02:41;;;;;;;20.03;18.83;;;;;;;11.65;100.00;99686.16;4994635;28;20173;-81
2023/03/27 06:05:13;;;;;;;19.35;18.00;;;;;;;11.78;100.00;99674.41;4992974;28;20047;-81
2023/03/27 06:07:41;;;;;;;20.48;19.08;;;;;;;11.93;100.00;99671.25;4993902;28;20405;-81
2023/03/27 06:10:09;;;;;;;19.60;18.20;;;;;;;12.11;100.00;99668.38;5002444;28;20050;-81
2023/03/27 06:12:36;;;;;;;21.08;19.23;;;;;;;12.38;100.00;99665.88;4996004;28;20104;-80
2023/03/27 06:15:04;;;;;;;20.60;19.13;;;;;;;12.57;100.00;99657.63;4988070;28;20076;-81
2023/03/27 06:17:31;;;;;;;20.88;19.27;;;;;;;12.71;100.00;99658.06;4995020;28;20555;-81
2023/03/27 06:19:58;;;;;;;21.20;19.70;;;;;;;12.81;100.00;99655.56;4995643;28;20050;-82
2023/03/27 06:22:26;;;;;;;34.58;28.33;;;;;;;12.98;100.00;99635.00;4991240;28;20057;-81
2023/03/27 06:24:54;;;;;;;21.45;19.70;;;;;;;13.16;100.00;99630.38;4994823;28;20058;-80
2023/03/27 06:27:21;;;;;;;21.08;19.38;;;;;;;13.35;100.00;99633.59;4994432;28;20065;-81
2023/03/27 06:29:48;;;;;;;23.65;21.35;;;;;;;13.56;100.00;99621.25;4990854;28;20463;-81
2023/03/27 06:32:15;;;;;;;20.25;18.83;;;;;;;13.88;100.00;99613.28;4994370;28;20503;-81
2023/03/27 06:34:48;;;;;;;21.38;19.40;;;;;;;14.19;100.00;99614.31;4989532;28;20491;-82
2023/03/27 06:37:15;;;;;;;21.88;19.77;;;;;;;14.38;100.00;99604.03;4988879;28;20050;-81
2023/03/27 06:39:43;;;;;;;21.55;20.00;;;;;;;14.54;100.00;99602.28;4989821;28;20432;-81
2023/03/27 06:42:10;;;;;;;21.05;19.55;;;;;;;14.64;100.00;99583.63;4990227;28;20062;-82
2023/03/27 06:44:37;;;;;;;21.80;19.92;;;;;;;14.72;100.00;99582.34;4995563;28;20085;-82
2023/03/27 06:47:04;;;;;;;23.02;21.10;;;;;;;14.86;100.00;99578.91;4992061;28;20107;-82
2023/03/27 06:49:30;;;;;;;22.73;20.98;;;;;;;14.96;100.00;99583.50;4998205;28;20626;-81
2023/03/27 06:51:57;;;;;;;22.75;20.70;;;;;;;15.07;100.00;99570.97;4991584;28;20113;-82
2023/03/27 06:54:24;;;;;;;22.50;20.70;;;;;;;15.18;100.00;99564.56;4995461;28;20614;-82
2023/03/27 06:56:52;;;;;;;23.92;22.23;;;;;;;15.54;100.00;99559.28;4999028;28;20104;-82
2023/03/27 06:59:19;;;;;;;23.95;22.15;;;;;;;15.88;100.00;99550.75;4998582;28;20046;-82
2023/03/27 07:01:46;;;;;;;22.95;21.30;;;;;;;16.15;100.00;99543.19;4997694;28;20046;-81
2023/03/27 07:04:13;;;;;;;23.15;21.13;;;;;;;16.47;100.00;99534.81;4991537;28;20069;-82
2023/03/27 07:06:40;;;;;;;26.85;24.45;;;;;;;16.54;100.00;99523.00;4997433;28;20054;-82
2023/03/27 07:09:07;;;;;;;25.35;23.45;;;;;;;16.65;100.00;99524.59;4994429;28;20054;-82
2023/03/27 07:11:33;;;;;;;23.13;21.33;;;;;;;16.76;100.00;99520.78;4989141;28;20511;-82
2023/03/27 07:14:02;;;;;;;24.42;22.30;;;;;;;16.91;100.00;99520.72;4995010;28;20117;-82
2023/03/27 07:16:28;;;;;;;24.25;22.45;;;;;;;16.75;100.00;99510.31;4988553;28;20122;-82
2023/03/27 07:18:56;;;;;;;24.98;23.08;;;;;;;16.66;100.00;99508.22;4993428;28;20100;-81
2023/03/27 07:21:22;;;;;;;23.67;21.88;;;;;;;16.69;100.00;99502.28;4995231;28;20054;-82
2023/03/27 07:23:49;;;;;;;23.80;22.20;;;;;;;16.76;100.00;99503.91;4998402;28;20097;-82
2023/03/27 07:26:16;;;;;;;30.08;27.63;;;;;;;16.66;100.00;99494.00;4993765;28;20479;-82
2023/03/27 07:28:43;;;;;;;27.60;25.50;;;;;;;16.96;100.00;99495.75;4995800;28;20050;-82
2023/03/27 07:31:15;;;;;;;31.40;28.42;;;;;;;17.16;100.00;99479.53;4983602;28;20053;-82
2023/03/27 07:33:41;;;;;;;48.30;43.70;;;;;;;17.22;97.75;99474.13;4989602;28;20042;-81
2023/03/27 07:36:09;;;;;;;42.35;38.33;;;;;;;17.30;94.22;99473.53;4994844;28;20062;-82
2023/03/27 07:38:36;;;;;;;46.10;41.10;;;;;;;17.32;92.37;99474.06;4978418;28;20070;-82
2023/03/27 07:41:05;;;;;;;58.03;51.58;;;;;;;17.50;90.89;99465.31;4996616;28;20046;-82
2023/03/27 07:43:33;;;;;;;39.97;35.33;;;;;;;17.62;88.24;99464.94;4982497;28;20056;-82
2023/03/27 07:46:00;;;;;;;23.02;21.23;;;;;;;17.76;90.31;99463.19;4995062;28;20052;-81
2023/03/27 07:48:29;;;;;;;22.48;20.98;;;;;;;18.06;87.20;99451.38;4996203;28;20097;-81
2023/03/27 07:50:59;;;;;;;22.20;20.67;;;;;;;18.06;84.60;99451.38;4993206;28;20047;-82
2023/03/27 07:53:26;;;;;;;22.55;20.75;;;;;;;18.34;86.44;99453.47;4996387;28;20046;-81
2023/03/27 07:55:53;;;;;;;23.63;21.92;;;;;;;18.53;84.64;99441.63;4996238;28;20546;-82
2023/03/27 07:58:20;;;;;;;22.38;20.55;;;;;;;18.75;83.73;99438.41;4996426;28;20054;-82
2023/03/27 08:00:50;;;;;;;22.70;21.13;;;;;;;18.63;81.25;99442.59;4995903;28;20125;-82
2023/03/27 08:03:17;;;;;;;22.10;20.50;;;;;;;18.82;77.35;99426.47;4996126;28;20121;-82
2023/03/27 08:05:53;;;;;;;23.52;21.88;;;;;;;18.52;75.04;99433.88;4996054;28;20133;-82
2023/03/27 08:08:19;;;;;;;23.15;21.25;;;;;;;18.46;73.83;99432.34;4995990;28;20128;-82
2023/03/27 08:10:47;;;;;;;24.35;22.55;;;;;;;18.49;73.56;99429.88;4996142;28;20046;-81
2023/03/27 08:13:13;;;;;;;26.30;24.30;;;;;;;18.66;71.24;99423.19;4996154;28;20430;-81
2023/03/27 08:15:40;;;;;;;24.42;22.52;;;;;;;18.96;70.43;99411.22;4996088;28;20491;-82
2023/03/27 08:18:08;;;;;;;25.80;23.80;;;;;;;19.32;70.75;99416.00;4995747;28;20108;-81
2023/03/27 08:20:35;;;;;;;24.88;23.08;;;;;;;19.22;66.69;99411.59;4996068;28;20057;-81
2023/03/27 08:23:04;;;;;;;24.08;21.92;;;;;;;19.15;68.12;99403.09;4996523;28;20050;-82
2023/03/27 08:25:31;;;;;;;22.67;20.85;;;;;;;18.90;65.88;99386.28;4999135;28;20047;-82
2023/03/27 08:28:03;;;;;;;22.17;20.48;;;;;;;18.75;66.04;99381.13;4999901;28;20577;-82
2023/03/27 08:30:30;;;;;;;22.70;21.10;;;;;;;18.73;67.59;99380.66;4996831;28;20046;-82
2023/03/27 08:32:58;;;;;;;23.40;21.60;;;;;;;18.99;67.32;99386.41;4999845;28;20046;-82
2023/03/27 08:35:25;;;;;;;23.55;21.95;;;;;;;19.12;67.54;99376.78;4999564;28;20085;-82
2023/03/27 08:37:52;;;;;;;26.40;24.60;;;;;;;19.07;64.04;99383.06;4999083;28;20050;-82
2023/03/27 08:40:25;;;;;;;23.38;21.77;;;;;;;19.19;62.16;99371.81;4994298;28;20129;-81
2023/03/27 08:42:56;;;;;;;21.80;20.30;;;;;;;18.98;63.10;99374.06;4997169;28;20051;-81
2023/03/27 08:45:34;;;;;;;23.97;22.03;;;;;;;19.43;63.25;99359.00;4989830;28;20116;-82
2023/03/27 08:48:06;;;;;;;25.02;23.13;;;;;;;19.66;62.72;99359.16;4990061;28;20316;-82
2023/03/27 08:50:36;;;;;;;22.60;21.00;;;;;;;19.85;61.30;99361.75;5002058;28;20054;-82
2023/03/27 08:53:09;;;;;;;23.10;21.60;;;;;;;19.38;60.67;99345.63;4999621;28;20065;-82
2023/03/27 08:55:42;;;;;;;23.17;21.58;;;;;;;19.34;60.21;99336.56;5004251;28;20054;-82
2023/03/27 08:58:18;;;;;;;24.58;23.08;;;;;;;19.53;60.24;99341.06;5004262;28;20109;-82
2023/03/27 09:00:50;;;;;;;22.88;21.10;;;;;;;19.80;60.57;99343.00;4999205;28;20484;-81
2023/03/27 09:03:22;;;;;;;21.80;20.20;;;;;;;19.57;58.24;99342.06;5007261;28;20104;-82
2023/03/27 09:05:56;;;;;;;23.20;21.60;;;;;;;20.08;59.95;99344.56;5007165;28;20104;-81
2023/03/27 09:08:32;;;;;;;25.73;23.83;;;;;;;20.40;57.99;99334.72;5004982;28;20467;-82
2023/03/27 09:11:05;;;;;;;24.60;22.67;;;;;;;20.30;58.48;99329.53;5008662;28;20117;-82
2023/03/27 09:13:38;;;;;;;22.70;20.95;;;;;;;20.91;56.90;99336.22;5012895;28;20503;-82
2023/03/27 09:16:13;;;;;;;22.05;20.38;;;;;;;20.96;55.47;99343.38;4998167;28;20404;-82
2023/03/27 09:18:47;;;;;;;22.25;20.70;;;;;;;21.32;55.26;99339.78;5001772;28;20321;-82
2023/03/27 09:21:18;;;;;;;22.38;20.83;;;;;;;21.25;53.01;99334.84;5008711;28;20172;-82
2023/03/27 09:23:46;;;;;;;22.05;20.55;;;;;;;21.44;54.20;99321.13;5007259;28;20051;-82
2023/03/27 09:26:18;;;;;;;22.02;20.33;;;;;;;21.21;52.21;99331.13;5007279;28;20503;-82
2023/03/27 09:28:50;;;;;;;22.70;21.17;;;;;;;21.30;51.76;99325.78;5004047;28;20050;-82
2023/03/27 09:31:25;;;;;;;24.02;22.33;;;;;;;22.03;50.26;99324.31;4992267;28;20088;-81
2023/03/27 09:33:52;;;;;;;25.48;23.77;;;;;;;21.78;51.81;99330.44;5005686;28;20039;-82
2023/03/27 09:36:20;;;;;;;22.90;21.35;;;;;;;21.80;50.42;99312.03;5004869;28;20146;-82
2023/03/27 09:38:51;;;;;;;24.17;22.45;;;;;;;22.27;50.78;99313.09;5007698;28;20050;-82
2023/03/27 09:41:22;;;;;;;24.63;22.92;;;;;;;21.89;51.74;99307.44;5003954;28;20054;-82
2023/03/27 09:43:58;;;;;;;24.23;22.42;;;;;;;21.37;51.00;99304.59;5010652;28;20042;-82
2023/03/27 09:46:28;;;;;;;23.83;22.08;;;;;;;21.93;48.47;99294.88;5006076;28;20103;-82
2023/03/27 09:49:01;;;;;;;24.70;23.10;;;;;;;21.93;50.60;99295.66;5007108;28;20045;-82
2023/03/27 09:51:43;;;;;;;24.25;22.73;;;;;;;22.19;47.91;99292.25;5006127;28;20050;-82
2023/03/27 09:54:13;;;;;;;26.15;24.52;;;;;;;22.03;45.47;99296.47;5004343;28;20101;-82
2023/03/27 09:56:45;;;;;;;26.33;24.52;;;;;;;21.28;49.37;99283.69;5007620;28;20046;-82
2023/03/27 09:59:26;;;;;;;26.35;24.45;;;;;;;21.41;46.08;99268.53;4998911;28;20539;-82
2023/03/27 10:01:57;;;;;;;25.92;24.20;;;;;;;21.96;47.25;99265.31;4996929;28;20050;-82
2023/03/27 10:04:26;;;;;;;26.48;24.65;;;;;;;21.52;46.87;99252.84;4998620;28;20081;-82
2023/03/27 10:07:00;;;;;;;27.20;25.40;;;;;;;21.55;46.66;99254.13;5005552;28;20046;-82
2023/03/27 10:09:29;;;;;;;24.35;22.50;;;;;;;21.52;47.66;99257.44;5003905;28;20046;-82
2023/03/27 10:12:10;;;;;;;25.67;23.77;;;;;;;21.44;47.31;99248.19;5010251;28;20070;-82
2023/03/27 10:14:41;;;;;;;25.77;24.05;;;;;;;21.03;47.81;99244.69;4993807;28;20049;-82
2023/03/27 10:17:21;;;;;;;25.80;24.13;;;;;;;20.89;47.95;99241.28;5001664;28;20042;-82
2023/03/27 10:19:50;;;;;;;26.02;24.42;;;;;;;20.85;48.65;99231.41;5005824;28;20424;-82
2023/03/27 10:22:23;;;;;;;24.95;23.13;;;;;;;20.98;47.28;99235.94;5001896;28;20050;-82
2023/03/27 10:24:53;;;;;;;25.35;23.70;;;;;;;21.19;45.85;99231.56;4995573;28;20111;-82
2023/03/27 10:27:25;;;;;;;25.95;24.13;;;;;;;21.52;47.13;99233.94;5001118;28;20113;-82
2023/03/27 10:29:51;;;;;;;25.65;24.05;;;;;;;21.21;47.41;99228.56;5005360;28;20054;-82
2023/03/27 10:32:18;;;;;;;27.60;25.55;;;;;;;21.19;47.68;99228.88;5001150;28;20054;-82
2023/03/27 10:34:53;;;;;;;24.40;22.67;;;;;;;21.43;49.54;99223.09;5005500;28;20556;-82
2023/03/27 10:37:27;;;;;;;23.27;21.58;;;;;;;21.11;48.84;99224.22;5004151;28;20050;-81
2023/03/27 10:39:56;;;;;;;24.30;22.70;;;;;;;21.34;48.19;99211.47;5001740;28;20500;-82
2023/03/27 10:42:54;;;;;;;25.48;23.80;;;;;;;20.79;49.07;99219.97;4991894;28;20050;-82
2023/03/27 10:45:23;;;;;;;24.75;23.15;;;;;;;20.98;47.25;99215.13;4997195;28;20409;-82
2023/03/27 10:47:52;;;;;;;28.38;26.48;;;;;;;21.02;47.87;99216.09;5004588;28;20053;-82
2023/03/27 10:50:21;;;;;;;27.08;25.27;;;;;;;21.49;47.34;99216.44;5002649;28;20523;-82
2023/03/27 10:53:00;;;;;;;28.08;26.27;;;;;;;20.85;48.25;99205.25;5004746;28;20054;-82
2023/03/27 10:55:47;;;;;;;25.30;23.60;;;;;;;21.38;47.62;99204.34;4998385;28;20046;-82
2023/03/27 10:58:24;;;;;;;24.08;22.30;;;;;;;21.67;47.17;99192.97;5005649;28;20457;-82
2023/03/27 11:00:57;;;;;;;23.48;21.77;;;;;;;21.03;47.49;99201.50;5004744;28;20423;-82
2023/03/27 11:03:30;;;;;;;24.65;22.95;;;;;;;20.65;47.92;99190.38;5005193;28;20057;-82
2023/03/27 11:05:58;;;;;;;22.98;21.27;;;;;;;20.67;50.52;99182.00;5001076;28;20106;-81
2023/03/27 11:08:32;;;;;;;25.13;23.38;;;;;;;20.53;50.95;99182.88;4994987;28;20047;-81
2023/03/27 11:11:03;;;;;;;24.55;22.85;;;;;;;20.31;51.81;99190.94;5006463;28;20058;-82
2023/03/27 11:13:36;;;;;;;23.85;21.95;;;;;;;20.08;52.05;99176.66;5007420;28;20054;-81
2023/03/27 11:16:13;;;;;;;23.88;22.27;;;;;;;20.11;52.98;99178.75;5006243;28;20058;-82
2023/03/27 11:18:44;;;;;;;24.20;22.50;;;;;;;20.14;53.52;99181.63;4997422;28;20104;-81
2023/03/27 11:21:17;;;;;;;23.33;21.63;;;;;;;20.38;54.87;99175.13;4987178;28;20129;-82
2023/03/27 11:23:50;;;;;;;24.80;23.05;;;;;;;20.22;54.30;99173.94;5004203;28;20049;-82
2023/03/27 11:26:21;;;;;;;25.98;24.27;;;;;;;20.14;54.61;99175.44;5005515;28;20046;-82
2023/03/27 11:28:54;;;;;;;24.50;22.50;;;;;;;20.65;56.24;99173.41;4992566;28;20042;-82